Chicago (ORD/KORD)

Information

Location
Chicago-O'Hare, IL
Local Time
22:59 / 10:59 pm
GMT Time
03:59 / 3:59 am
  • Experiencing general departure delays between 46 minutes to 1 hour in length and Increasing due to WX:Thunderstorms
METAR KORD 170251Z 16010KT 7SM SCT075 BKN090 OVC110 26/23 A2985 RMK AO2 RAE0156 SLP104 P0000 60001 T02560228 58006
TAF KORD 170311Z 1703/1806 16012KT 6SM -SHRA VCTS BKN020 OVC040CB FM170600 19010KT P6SM SCT012 BKN040 TEMPO 1709/1713 BKN012 FM171300 24012G20KT P6SM SCT020 BKN035 FM171700 26018G28KT P6SM BKN050